Impacts TAF Board INFO
FOR SITUATIONAL AWARENESS. NOT TO BE USED FOR FLIGHT PLANNING PURPOSES.
IDs:

KMSP - Minneapolis-St Paul, MN, US

Issued at 0259 UTC 20 Feb 2018
Updated at 0348 UTC 20 Feb 2018
Potential Impact None Slight Moderate High
Time0253Z 20/04Z 20/05Z 20/06Z 20/07Z 20/08Z 20/09Z 20/10Z 20/11Z 20/12Z 20/13Z 20/14Z 20/15Z 20/16Z>>
Type OBS PRVL PRVL PRVL PRVL PRVL PRVL PRVL PRVL PRVL PRVL PRVL PRVL PRVL
VIS 5 4 6 6 6 1.5 1.5 3 3 >6 >6 >6 >6 >6
CIG 8 9 8 8 8 8 8 11 11 15 15 15 15 15
Cover OVC OVC OVC OVC OVC OVC OVC OVC OVC OVC OVC OVC OVC OVC
FltCat IFR IFR IFR IFR IFR IFR IFR MVFR MVFR MVFR MVFR MVFR MVFR MVFR
WX -FZDZ BR -FZDZ SN BR BR BR BR -SN -PL BR -SN -PL BR -SN -PL BR -SN -PL BR -- -- -- -- --
WDir 40 30 20 20 20 20 20 10 10 360 360 360 360 360
WSpd 10 11 11 11 11 10 10 8 8 8 8 8 8 8
WGst -- -- -- -- -- -- -- -- -- -- -- -- -- --

Raw TAF
KMSP 200259Z 2003/2106 03011KT 4SM -FZDZSN BR OVC009
  FM200500 02011KT 6SM BR OVC008
  FM200800 02010KT 1 1/2SM -SNPL BR OVC008
  FM201000 01008KT 3SM -SNPL BR OVC011
  FM201200 36008KT P6SM OVC015
  FM202000 31011KT P6SM OVC020
  FM210400 30010KT P6SM SCT020


Raw METAR
KMSP 200253Z 04010KT 5SM -FZDZ BR OVC008 M07/M07 A2989 RMK AO2 SLP137 P0000 60000 I1003 I3013 T10671072 50000
KMSP 200226Z 03012KT 4SM -FZDZ BR OVC008 M06/M07 A2988 RMK AO2 P0000 I1001 T10611072
KMSP 200153Z 03012KT 4SM -FZDZ BR OVC007 M06/M07 A2990 RMK AO2 SLP139 P0000 I1004 T10611067
KMSP 200106Z 01012G20KT 3SM -FZDZ BR OVC007 M06/M07 A2991 RMK AO2 P0000 I1001 T10611067
KMSP 200053Z 01013KT 3SM -FZDZ BR OVC008 M06/M07 A2991 RMK AO2 SLP144 P0000 I1006 T10611067

METAR Board
Radar Display
Forecast Discussion

FOR SITUATIONAL AWARENESS. NOT TO BE USED FOR FLIGHT PLANNING PURPOSES.